Hlavní strana
METAR-TAF:

METAR-TAF

Letiště :

Rabat, Maroko

zeměpisná šířka: 34-03N, zeměpisná délka: 006-46W, výška: 84 m

Aktuální stav počasí

Zpráva byla vytvořena před 20 minutami, v 14:30 UTC
Východní vítr 10 kt, proměnlivý mezi severovýchodním a východním
Teplota 23°C
Vlhkost vzduchu 44%
Tlak 1019 hPa
Viditelnost: 6000 m

METAR: GMME 031430Z 08010KT 040V100 6000 NSC 23/10 Q1019 NOSIG

Čas: 15:50 (14:50 UTC)

Předpověď počasí

Zpráva byla vytvořena před 3 hodinami a 50 minutami, v 11:00 UTC
Předpověď platná od 03 v 12 UTC do 04 v 18 UTC
Východní vítr 10 kt
Viditelnost: 6000 m
Polojasno ve výšce 1500 ft
Dočasný
od 04 v 00 UTC do 04 v 06 UTC
Severozápadní vítr 8 kt

TAF: GMME 031100Z 0312/0418 09010KT 6000 SCT015 TEMPO 0400/0406 32008KT

Stav a předpovědi počasí z více než 4 000 letišť (zprávy METAR a TAF).

Červené a žluté tečky na mapě představují dostupné meteorologické stanice.

Když kurzor umístíte na tečku, zobrazí se název stanice.

Pak kliknutím zobrazíte stav a předpověď počasí.

Chcete-li změnit mapu, kliknutím na zelené tlačítko se znaménkem +mapu přiblížíte, kliknutím na zelené tlačítko se znaménkem – mapu oddálíte a kliknutím na zelené šipky přejdete na sousední mapy.


METAR-TAF: